Time;durP1;ratioP1;P1;durP2;ratioP2;P2;SDS_P1;SDS_P2;PMS_P1;PMS_P2;Temp;Humidity;BMP_temperature;BMP_pressure;BME280_temperature;BME280_humidity;BME280_pressure;Samples;Min_cycle;Max_cycle;Signal;HPM_P1;HPM_P2
2022/04/24 00:00:29;;;;;;;;;;;;;;;12.98;73.41;99017.53;4410392;32;33506;-79
2022/04/24 00:02:57;;;;;;;;;;;;;;;12.76;74.14;99007.66;4420466;32;35160;-78
2022/04/24 00:05:26;;;;;;;;;;;;;;;12.95;73.46;99009.87;4458305;32;33308;-79
2022/04/24 00:07:53;;;;;;;;;;;;;;;12.99;73.24;99014.69;4459750;32;36397;-77
2022/04/24 00:10:22;;;;;;;;;;;;;;;13.07;72.81;99011.13;4435673;32;34765;-78
2022/04/24 00:12:50;;;;;;;;;;;;;;;13.05;72.82;99016.63;4434189;32;34213;-79
2022/04/24 00:15:17;;;;;;;;;;;;;;;13.13;72.46;99016.56;4436783;32;33976;-79
2022/04/24 00:17:45;;;;;;;;;;;;;;;13.21;71.93;99010.34;4431629;32;33899;-79
2022/04/24 00:20:12;;;;;;;;;;;;;;;13.33;71.41;99004.38;4429663;32;34469;-78
2022/04/24 00:22:40;;;;;;;;;;;;;;;13.25;71.38;98995.63;4430597;32;35351;-79
2022/04/24 00:25:08;;;;;;;;;;;;;;;13.19;71.64;98991.81;4437311;32;33286;-77
2022/04/24 00:27:35;;;;;;;;;;;;;;;13.07;72.17;98990.59;4441648;32;35014;-79
2022/04/24 00:30:03;;;;;;;;;;;;;;;12.97;72.56;98973.16;4444316;32;35337;-76
2022/04/24 00:32:31;;;;;;;;;;;;;;;12.93;72.60;98969.16;4430985;32;34413;-77
2022/04/24 00:34:58;;;;;;;;;;;;;;;13.16;71.73;98961.97;4429693;32;33177;-78
2022/04/24 00:37:27;;;;;;;;;;;;;;;12.93;72.46;98964.63;4428815;32;33698;-79
2022/04/24 00:39:55;;;;;;;;;;;;;;;12.53;73.93;98975.59;4433626;32;36128;-79
2022/04/24 00:42:22;;;;;;;;;;;;;;;12.84;72.83;98981.72;4442854;32;34596;-77
2022/04/24 00:44:50;;;;;;;;;;;;;;;12.84;72.56;98973.72;4431347;32;33465;-77
2022/04/24 00:47:20;;;;;;;;;;;;;;;12.79;72.59;98973.44;4433024;32;34999;-77
2022/04/24 00:49:48;;;;;;;;;;;;;;;12.45;73.89;98972.13;4431509;32;34782;-78
2022/04/24 00:52:15;;;;;;;;;;;;;;;12.32;74.24;98969.22;4432397;32;35470;-78
2022/04/24 00:54:43;;;;;;;;;;;;;;;12.49;73.61;98968.12;4431263;32;33372;-78
2022/04/24 00:57:11;;;;;;;;;;;;;;;12.45;73.48;98974.81;4430506;32;34803;-77
2022/04/24 00:59:38;;;;;;;;;;;;;;;12.35;73.65;98979.53;4442716;32;34484;-77
2022/04/24 01:02:06;;;;;;;;;;;;;;;12.64;72.41;98987.69;4433767;32;34359;-79
2022/04/24 01:04:35;;;;;;;;;;;;;;;12.42;73.08;98975.16;4432631;32;34066;-78
2022/04/24 01:07:03;;;;;;;;;;;;;;;12.56;72.67;98975.25;4432736;32;33285;-78
2022/04/24 01:09:32;;;;;;;;;;;;;;;12.59;72.19;98977.59;4436314;32;35225;-78
2022/04/24 01:11:59;;;;;;;;;;;;;;;12.29;73.37;98978.41;4433726;32;34174;-77
2022/04/24 01:14:27;;;;;;;;;;;;;;;12.60;72.63;98978.41;4433543;32;32939;-79
2022/04/24 01:16:54;;;;;;;;;;;;;;;12.65;72.25;98982.19;4420559;32;33942;-79
2022/04/24 01:19:24;;;;;;;;;;;;;;;12.70;71.98;98973.66;4425820;32;35967;-77
2022/04/24 01:21:51;;;;;;;;;;;;;;;12.45;72.86;98978.31;4431633;32;34171;-79
2022/04/24 01:24:20;;;;;;;;;;;;;;;12.51;72.48;98968.78;4453534;32;32800;-78
2022/04/24 01:26:48;;;;;;;;;;;;;;;12.66;71.84;98972.37;4434490;32;33979;-77
2022/04/24 01:29:16;;;;;;;;;;;;;;;12.45;72.50;98974.81;4439002;32;36038;-78
2022/04/24 01:31:44;;;;;;;;;;;;;;;12.21;73.29;98962.44;4446515;32;34210;-78
2022/04/24 01:34:12;;;;;;;;;;;;;;;12.26;73.09;98953.91;4437195;32;34101;-76
2022/04/24 01:36:40;;;;;;;;;;;;;;;12.43;72.35;98959.00;4438220;32;33983;-77
2022/04/24 01:39:08;;;;;;;;;;;;;;;12.27;72.84;98960.94;4440793;32;36174;-79
2022/04/24 01:41:36;;;;;;;;;;;;;;;12.47;71.96;98946.97;4437425;32;35316;-76
2022/04/24 01:44:03;;;;;;;;;;;;;;;12.38;72.43;98952.53;4452973;32;34086;-78
2022/04/24 01:46:31;;;;;;;;;;;;;;;12.27;72.61;98944.94;4453210;32;33828;-76
2022/04/24 01:48:58;;;;;;;;;;;;;;;12.40;71.92;98954.00;4460239;32;35413;-78
2022/04/24 01:51:26;;;;;;;;;;;;;;;12.21;72.65;98949.09;4426948;32;34689;-77
2022/04/24 01:53:53;;;;;;;;;;;;;;;11.99;73.35;98943.75;4419703;32;33271;-78
2022/04/24 01:56:21;;;;;;;;;;;;;;;12.12;73.14;98946.66;4417960;32;32760;-77
2022/04/24 01:58:48;;;;;;;;;;;;;;;12.15;73.13;98947.16;4438117;32;36128;-79
2022/04/24 02:01:16;;;;;;;;;;;;;;;12.16;72.93;98937.31;4439653;32;34546;-77
2022/04/24 02:03:44;;;;;;;;;;;;;;;12.06;73.56;98956.19;4418891;32;33514;-79
2022/04/24 02:06:12;;;;;;;;;;;;;;;11.96;73.86;98950.25;4455699;32;34327;-78
2022/04/24 02:08:40;;;;;;;;;;;;;;;12.36;72.25;98950.03;4421494;32;35798;-78
2022/04/24 02:11:08;;;;;;;;;;;;;;;11.90;73.79;98945.59;4433283;32;34133;-78
2022/04/24 02:13:36;;;;;;;;;;;;;;;11.90;74.04;98948.25;4457641;32;32521;-79
2022/04/24 02:16:04;;;;;;;;;;;;;;;11.59;75.01;98939.41;4417619;32;33501;-77
2022/04/24 02:18:33;;;;;;;;;;;;;;;11.67;75.00;98949.19;4432464;32;35418;-78
2022/04/24 02:21:00;;;;;;;;;;;;;;;11.86;74.36;98943.44;4442422;32;34009;-79
2022/04/24 02:23:28;;;;;;;;;;;;;;;11.83;74.49;98941.16;4433785;32;34167;-78
2022/04/24 02:25:55;;;;;;;;;;;;;;;12.08;73.21;98940.00;4430264;32;34419;-80
2022/04/24 02:28:23;;;;;;;;;;;;;;;11.91;73.91;98938.44;4442422;32;35876;-77
2022/04/24 02:30:50;;;;;;;;;;;;;;;12.00;73.66;98938.22;4460309;32;35203;-79
2022/04/24 02:33:18;;;;;;;;;;;;;;;12.29;71.99;98927.72;4439762;32;33102;-78
2022/04/24 02:35:45;;;;;;;;;;;;;;;12.05;72.54;98935.88;4445440;32;33346;-79
2022/04/24 02:38:13;;;;;;;;;;;;;;;12.42;71.41;98932.50;4455712;32;35122;-78
2022/04/24 02:40:41;;;;;;;;;;;;;;;12.18;72.13;98933.47;4450747;32;34832;-78
2022/04/24 02:43:08;;;;;;;;;;;;;;;12.26;72.30;98938.75;4429820;32;33761;-78
2022/04/24 02:45:35;;;;;;;;;;;;;;;12.13;72.38;98938.50;4419556;32;34518;-78
2022/04/24 02:48:04;;;;;;;;;;;;;;;11.88;73.33;98928.13;4430171;32;33283;-77
2022/04/24 02:50:31;;;;;;;;;;;;;;;11.74;74.16;98939.50;4426132;32;34480;-78
2022/04/24 02:52:59;;;;;;;;;;;;;;;11.95;73.30;98923.75;4433714;32;33193;-78
2022/04/24 02:55:26;;;;;;;;;;;;;;;12.15;72.49;98928.50;4444509;32;32573;-80
2022/04/24 02:57:54;;;;;;;;;;;;;;;12.13;72.49;98927.84;4450593;32;35831;-78
2022/04/24 03:00:25;;;;;;;;;;;;;;;11.69;74.32;98932.03;4437729;32;34306;-77
2022/04/24 03:02:53;;;;;;;;;;;;;;;11.68;74.39;98918.87;4438533;32;33378;-76
2022/04/24 03:05:22;;;;;;;;;;;;;;;11.87;73.53;98923.78;4459980;32;34235;-78
2022/04/24 03:07:49;;;;;;;;;;;;;;;11.74;73.93;98912.88;4432177;32;36072;-78
2022/04/24 03:10:17;;;;;;;;;;;;;;;11.76;73.63;98918.84;4419818;32;33870;-77
2022/04/24 03:12:45;;;;;;;;;;;;;;;11.34;75.65;98916.44;4431199;32;33550;-78
2022/04/24 03:15:14;;;;;;;;;;;;;;;11.68;74.52;98902.87;4432654;32;34029;-78
2022/04/24 03:17:42;;;;;;;;;;;;;;;11.39;75.68;98913.28;4437236;32;35140;-77
2022/04/24 03:20:11;;;;;;;;;;;;;;;11.36;76.12;98902.97;4408521;32;34268;-78
2022/04/24 03:22:38;;;;;;;;;;;;;;;11.37;76.20;98899.31;4419834;32;33115;-78
2022/04/24 03:25:07;;;;;;;;;;;;;;;11.60;75.01;98910.91;4442478;32;33273;-78
2022/04/24 03:27:34;;;;;;;;;;;;;;;11.76;74.30;98905.53;4418795;32;34922;-79
2022/04/24 03:30:02;;;;;;;;;;;;;;;11.39;75.81;98900.81;4459275;32;35497;-78
2022/04/24 03:32:31;;;;;;;;;;;;;;;11.84;74.22;98892.97;4425766;32;34443;-79
2022/04/24 03:34:59;;;;;;;;;;;;;;;11.61;74.77;98885.91;4406570;32;34193;-77
2022/04/24 03:37:26;;;;;;;;;;;;;;;11.65;74.66;98884.59;4433256;32;35093;-79
2022/04/24 03:39:54;;;;;;;;;;;;;;;11.71;74.38;98890.06;4444867;32;35371;-76
2022/04/24 03:42:22;;;;;;;;;;;;;;;11.65;74.51;98889.91;4432056;32;837664;-77
2022/04/24 03:44:49;;;;;;;;;;;;;;;11.63;74.67;98882.09;4444271;32;33916;-80
2022/04/24 03:47:18;;;;;;;;;;;;;;;11.90;73.69;98888.81;4438060;32;34421;-79
2022/04/24 03:49:46;;;;;;;;;;;;;;;12.05;72.95;98892.38;4444316;32;34896;-77
2022/04/24 03:52:13;;;;;;;;;;;;;;;11.92;73.32;98881.47;4455873;32;33081;-76
2022/04/24 03:54:41;;;;;;;;;;;;;;;11.92;73.58;98897.47;4459909;32;34689;-79
2022/04/24 03:57:09;;;;;;;;;;;;;;;11.82;74.04;98895.00;4437698;32;35256;-79
2022/04/24 03:59:36;;;;;;;;;;;;;;;12.10;72.66;98884.69;4455225;32;34681;-77
2022/04/24 04:02:05;;;;;;;;;;;;;;;11.77;74.03;98884.03;4438207;32;32861;-78
2022/04/24 04:04:33;;;;;;;;;;;;;;;12.21;72.43;98885.09;4450894;32;33937;-78
2022/04/24 04:07:01;;;;;;;;;;;;;;;12.32;71.95;98883.88;4453454;32;36162;-79
2022/04/24 04:09:28;;;;;;;;;;;;;;;12.41;71.58;98888.16;4439110;32;34736;-79
2022/04/24 04:11:56;;;;;;;;;;;;;;;12.53;70.67;98886.72;4441170;32;32821;-78
2022/04/24 04:14:24;;;;;;;;;;;;;;;12.43;71.28;98896.81;4439425;32;33503;-78
2022/04/24 04:16:51;;;;;;;;;;;;;;;12.29;71.71;98893.06;4443233;32;35301;-78
2022/04/24 04:19:19;;;;;;;;;;;;;;;12.45;71.14;98897.44;4457606;32;33798;-78
2022/04/24 04:21:47;;;;;;;;;;;;;;;12.35;71.34;98896.84;4439519;32;33323;-78
2022/04/24 04:24:15;;;;;;;;;;;;;;;12.13;72.46;98887.00;4454486;32;34153;-78
2022/04/24 04:26:42;;;;;;;;;;;;;;;12.42;71.38;98879.13;4418631;32;35938;-79
2022/04/24 04:29:10;;;;;;;;;;;;;;;12.29;71.82;98890.41;4417481;32;34768;-79
2022/04/24 04:31:38;;;;;;;;;;;;;;;12.33;72.08;98888.22;4434213;32;33403;-78
2022/04/24 04:34:06;;;;;;;;;;;;;;;12.40;71.61;98881.16;4458081;32;34614;-78
2022/04/24 04:36:34;;;;;;;;;;;;;;;12.30;71.80;98888.56;4438779;32;33173;-78
2022/04/24 04:39:01;;;;;;;;;;;;;;;12.10;72.64;98906.84;4431362;32;35250;-79
2022/04/24 04:41:29;;;;;;;;;;;;;;;12.47;71.70;98901.59;4431353;32;33672;-81
2022/04/24 04:43:57;;;;;;;;;;;;;;;12.75;70.13;98896.56;4445291;32;33945;-79
2022/04/24 04:46:24;;;;;;;;;;;;;;;12.76;70.09;98887.56;4433213;32;35797;-80
2022/04/24 04:48:52;;;;;;;;;;;;;;;12.59;70.53;98894.88;4450567;32;34648;-79
2022/04/24 04:51:19;;;;;;;;;;;;;;;12.79;69.63;98893.38;4428309;32;33470;-78
2022/04/24 04:53:47;;;;;;;;;;;;;;;12.78;69.70;98890.88;4432252;32;34201;-77
2022/04/24 04:56:15;;;;;;;;;;;;;;;12.51;70.87;98889.59;4452982;32;34925;-76
2022/04/24 04:58:42;;;;;;;;;;;;;;;12.45;71.51;98884.09;4430377;32;33385;-79
2022/04/24 05:01:09;;;;;;;;;;;;;;;12.55;71.04;98880.22;4444081;32;32495;-79
2022/04/24 05:03:37;;;;;;;;;;;;;;;12.64;70.83;98888.97;4430684;32;34388;-77
2022/04/24 05:06:05;;;;;;;;;;;;;;;12.75;70.60;98881.37;4429140;32;35147;-78
2022/04/24 05:08:33;;;;;;;;;;;;;;;12.78;70.02;98885.53;4435596;32;34296;-78
2022/04/24 05:11:06;;;;;;;;;;;;;;;12.37;71.83;98881.53;4417999;32;32050;-78
2022/04/24 05:13:34;;;;;;;;;;;;;;;12.65;71.13;98867.44;4429598;32;34241;-78
2022/04/24 05:16:01;;;;;;;;;;;;;;;12.42;72.04;98865.81;4429962;32;35372;-79
2022/04/24 05:18:29;;;;;;;;;;;;;;;12.52;71.71;98869.06;4448691;32;34650;-78
2022/04/24 05:20:57;;;;;;;;;;;;;;;12.86;70.63;98874.78;4460164;32;32789;-78
2022/04/24 05:23:24;;;;;;;;;;;;;;;12.84;70.27;98874.16;4433510;32;33930;-78
2022/04/24 05:25:52;;;;;;;;;;;;;;;13.00;69.58;98871.31;4434438;32;36318;-78
2022/04/24 05:28:19;;;;;;;;;;;;;;;12.77;70.83;98875.88;4450235;32;34570;-79
2022/04/24 05:30:47;;;;;;;;;;;;;;;12.83;70.74;98872.47;4434277;32;35327;-81
2022/04/24 05:33:16;;;;;;;;;;;;;;;12.62;71.22;98859.81;4457298;32;34038;-78
2022/04/24 05:35:44;;;;;;;;;;;;;;;12.76;71.65;98864.34;4430343;32;35967;-80
2022/04/24 05:38:11;;;;;;;;;;;;;;;12.85;71.14;98868.59;4422221;32;34703;-78
2022/04/24 05:40:39;;;;;;;;;;;;;;;13.10;70.17;98870.06;4446230;32;33473;-78
2022/04/24 05:43:08;;;;;;;;;;;;;;;13.24;69.35;98874.56;4438828;32;33805;-78
2022/04/24 05:45:36;;;;;;;;;;;;;;;13.22;69.33;98879.28;4448548;32;35169;-79
2022/04/24 05:48:04;;;;;;;;;;;;;;;13.28;69.19;98880.37;4451677;32;34681;-79
2022/04/24 05:50:33;;;;;;;;;;;;;;;13.48;68.59;98878.84;4456278;32;33598;-78
2022/04/24 05:53:02;;;;;;;;;;;;;;;13.14;69.46;98879.34;4433794;32;34423;-79
2022/04/24 05:55:29;;;;;;;;;;;;;;;13.03;70.24;98877.12;4446071;32;35316;-77
2022/04/24 05:57:57;;;;;;;;;;;;;;;13.11;70.04;98871.72;4445934;32;35541;-77
2022/04/24 06:00:24;;;;;;;;;;;;;;;13.02;70.39;98880.81;4428713;32;33051;-76
2022/04/24 06:02:52;;;;;;;;;;;;;;;12.92;70.95;98890.91;4419724;32;34460;-77
2022/04/24 06:05:21;;;;;;;;;;;;;;;13.16;70.21;98884.53;4434892;32;35698;-80
2022/04/24 06:07:49;;;;;;;;;;;;;;;13.30;70.39;98884.53;4432760;32;34300;-79
2022/04/24 06:10:17;;;;;;;;;;;;;;;13.63;68.52;98877.84;4435593;32;32865;-79
2022/04/24 06:12:48;;;;;;;;;;;;;;;13.44;69.34;98882.88;4422623;32;35290;-78
2022/04/24 06:15:17;;;;;;;;;;;;;;;13.33;70.21;98878.00;4455061;32;36121;-80
2022/04/24 06:17:47;;;;;;;;;;;;;;;13.54;69.23;98880.78;4418808;32;34854;-80
2022/04/24 06:20:15;;;;;;;;;;;;;;;13.63;68.42;98880.50;4452412;32;33194;-80
2022/04/24 06:22:49;;;;;;;;;;;;;;;13.64;68.29;98884.00;4433728;32;35182;-81
2022/04/24 06:25:18;;;;;;;;;;;;;;;13.81;68.35;98872.09;4460644;32;35351;-80
2022/04/24 06:27:46;;;;;;;;;;;;;;;13.84;67.99;98874.38;4424129;32;34575;-80
2022/04/24 06:30:14;;;;;;;;;;;;;;;13.93;67.38;98876.78;4444883;32;33060;-81
2022/04/24 06:32:43;;;;;;;;;;;;;;;13.88;67.94;98870.31;4435785;32;35833;-80
2022/04/24 06:35:12;;;;;;;;;;;;;;;14.08;66.92;98874.06;4445152;32;34126;-80
2022/04/24 06:37:43;;;;;;;;;;;;;;;14.45;65.96;98866.66;4445889;32;34579;-78
2022/04/24 06:40:12;;;;;;;;;;;;;;;14.21;66.49;98864.38;4432902;32;34067;-80
2022/04/24 06:43:04;;;;;;;;;;;;;;;14.07;67.19;98865.19;4409511;32;33844;-82
2022/04/24 06:45:39;;;;;;;;;;;;;;;14.29;66.46;98858.91;4444503;32;35088;-81
2022/04/24 06:48:10;;;;;;;;;;;;;;;14.33;66.79;98851.31;4448333;32;34353;-82
2022/04/24 06:50:38;;;;;;;;;;;;;;;14.37;66.71;98852.59;4428619;32;33568;-87
2022/04/24 06:53:06;;;;;;;;;;;;;;;14.52;66.31;98844.31;4451196;32;34261;-80
2022/04/24 06:55:38;;;;;;;;;;;;;;;14.63;65.62;98843.78;4441236;32;36113;-80
2022/04/24 06:58:06;;;;;;;;;;;;;;;14.71;66.11;98866.91;4445563;32;34615;-77
2022/04/24 07:00:36;;;;;;;;;;;;;;;15.22;64.39;98844.25;4451457;32;32795;-78
2022/04/24 07:03:26;;;;;;;;;;;;;;;15.20;64.29;98844.44;4451269;32;34162;-82
2022/04/24 07:05:54;;;;;;;;;;;;;;;15.21;63.95;98846.09;4436334;32;35059;-80
2022/04/24 07:08:22;;;;;;;;;;;;;;;15.47;63.18;98837.41;4445977;32;35100;-80
2022/04/24 07:10:52;;;;;;;;;;;;;;;15.83;63.07;98846.88;4431109;32;32932;-80
2022/04/24 07:13:21;;;;;;;;;;;;;;;16.13;61.58;98844.72;4431708;32;31599;-80
2022/04/24 07:15:48;;;;;;;;;;;;;;;16.04;61.04;98838.69;4432413;32;33966;-80
2022/04/24 07:18:16;;;;;;;;;;;;;;;16.46;59.64;98845.62;4452880;32;34726;-79
2022/04/24 07:20:44;;;;;;;;;;;;;;;16.32;60.56;98839.38;4445821;32;33266;-79
2022/04/24 07:23:11;;;;;;;;;;;;;;;16.60;59.33;98826.66;4446392;32;34128;-81
2022/04/24 07:25:43;;;;;;;;;;;;;;;15.98;61.36;98828.75;4446547;32;34449;-81
2022/04/24 07:28:11;;;;;;;;;;;;;;;16.19;61.38;98823.28;4440782;32;34849;-81
2022/04/24 07:30:40;;;;;;;;;;;;;;;16.55;60.73;98821.09;4433696;32;34025;-80
2022/04/24 07:33:07;;;;;;;;;;;;;;;16.39;60.60;98804.53;4432895;32;33094;-80
2022/04/24 07:35:36;;;;;;;;;;;;;;;16.37;60.16;98823.53;4443881;32;35467;-78
2022/04/24 07:38:03;;;;;;;;;;;;;;;15.85;62.47;98818.00;4451942;32;34139;-79
2022/04/24 07:40:32;;;;;;;;;;;;;;;16.20;61.89;98819.56;4430360;32;33333;-80
2022/04/24 07:43:00;;;;;;;;;;;;;;;16.36;60.17;98827.25;4430809;32;34196;-78
2022/04/24 07:45:29;;;;;;;;;;;;;;;16.43;60.44;98813.84;4446524;32;36116;-79
2022/04/24 07:47:58;;;;;;;;;;;;;;;16.57;60.16;98821.69;4408597;32;35112;-81
2022/04/24 07:50:27;;;;;;;;;;;;;;;16.52;60.84;98823.34;4434091;32;32997;-79
2022/04/24 07:52:56;;;;;;;;;;;;;;;16.95;59.51;98829.94;4435045;32;33704;-79
2022/04/24 07:55:24;;;;;;;;;;;;;;;17.00;59.14;98833.66;4406810;32;34519;-79
2022/04/24 07:57:53;;;;;;;;;;;;;;;16.98;59.71;98832.25;4446163;32;33984;-79
2022/04/24 08:00:21;;;;;;;;;;;;;;;16.83;59.66;98829.78;4458124;32;33462;-78
2022/04/24 08:02:58;;;;;;;;;;;;;;;16.72;59.86;98826.87;4461076;32;33952;-80
2022/04/24 08:05:26;;;;;;;;;;;;;;;16.93;59.05;98811.37;4441167;32;35984;-79
2022/04/24 08:07:54;;;;;;;;;;;;;;;16.75;59.50;98808.50;4436408;32;35351;-79
2022/04/24 08:10:22;;;;;;;;;;;;;;;17.34;58.51;98811.91;4453112;32;33999;-80
2022/04/24 08:12:50;;;;;;;;;;;;;;;17.60;56.92;98793.84;4438463;32;32458;-78
2022/04/24 08:15:17;;;;;;;;;;;;;;;17.57;57.44;98812.31;4448458;32;34348;-79
2022/04/24 08:17:44;;;;;;;;;;;;;;;17.55;57.43;98801.75;4425539;32;32523;-79
2022/04/24 08:20:13;;;;;;;;;;;;;;;17.83;55.93;98791.50;4450844;32;33221;-79
2022/04/24 08:22:40;;;;;;;;;;;;;;;18.24;55.10;98788.38;4440633;32;33827;-79
2022/04/24 08:25:08;;;;;;;;;;;;;;;18.26;55.84;98772.81;4453995;32;35675;-79
2022/04/24 08:27:36;;;;;;;;;;;;;;;18.47;55.11;98775.19;4433558;32;34578;-79
2022/04/24 08:30:09;;;;;;;;;;;;;;;18.77;54.22;98778.88;4434267;32;34117;-79
2022/04/24 08:32:37;;;;;;;;;;;;;;;18.70;53.96;98767.34;4440827;32;34085;-78
2022/04/24 08:35:05;;;;;;;;;;;;;;;18.68;54.21;98764.03;4449709;32;34635;-79
2022/04/24 08:37:33;;;;;;;;;;;;;;;19.32;50.76;98777.94;4445900;32;34030;-80
2022/04/24 08:40:01;;;;;;;;;;;;;;;19.35;51.66;98764.84;4439670;32;32994;-79
2022/04/24 08:42:28;;;;;;;;;;;;;;;19.13;51.81;98758.22;4432244;32;33767;-79
2022/04/24 08:44:56;;;;;;;;;;;;;;;19.51;51.99;98763.41;4446908;32;34850;-80
2022/04/24 08:47:24;;;;;;;;;;;;;;;19.80;50.78;98751.84;4459726;32;34404;-80
2022/04/24 08:49:58;;;;;;;;;;;;;;;19.99;50.34;98756.97;4460779;32;34166;-79
2022/04/24 08:52:27;;;;;;;;;;;;;;;19.45;52.46;98759.75;4446305;32;34750;-79
2022/04/24 08:54:54;;;;;;;;;;;;;;;19.80;50.41;98743.75;4456135;32;35252;-80
2022/04/24 08:57:26;;;;;;;;;;;;;;;20.14;49.68;98743.06;4446189;32;34592;-79
2022/04/24 08:59:54;;;;;;;;;;;;;;;20.19;49.59;98743.22;4442758;32;33499;-78
2022/04/24 09:02:41;;;;;;;;;;;;;;;20.19;48.73;98748.63;4450891;32;34232;-81
2022/04/24 09:05:09;;;;;;;;;;;;;;;20.51;47.98;98737.31;4457735;32;35080;-81
2022/04/24 09:07:38;;;;;;;;;;;;;;;20.65;45.83;98738.72;4434107;32;35446;-80
2022/04/24 09:10:22;;;;;;;;;;;;;;;20.77;45.42;98739.53;4462479;32;33959;-79
2022/04/24 09:12:54;;;;;;;;;;;;;;;20.96;45.65;98727.63;4460101;32;34326;-81
2022/04/24 09:15:21;;;;;;;;;;;;;;;20.62;44.35;98756.22;4414447;32;34239;-79
2022/04/24 09:17:49;;;;;;;;;;;;;;;20.63;42.66;98722.75;4448020;32;34549;-79
2022/04/24 09:20:20;;;;;;;;;;;;;;;20.62;43.71;98729.19;4445952;32;32696;-80
2022/04/24 09:22:47;;;;;;;;;;;;;;;20.57;42.97;98732.84;4433303;32;34285;-83
2022/04/24 09:25:15;;;;;;;;;;;;;;;20.88;42.33;98739.59;4447947;32;35283;-79
2022/04/24 09:27:42;;;;;;;;;;;;;;;20.90;42.36;98729.34;4441294;32;35434;-80
2022/04/24 09:30:10;;;;;;;;;;;;;;;20.62;42.92;98731.09;4442966;32;32890;-80
2022/04/24 09:32:47;;;;;;;;;;;;;;;21.13;42.66;98732.06;4432529;32;35336;-80
2022/04/24 09:35:24;;;;;;;;;;;;;;;21.36;42.20;98739.31;4432926;32;34469;-80
2022/04/24 09:37:52;;;;;;;;;;;;;;;21.32;41.25;98733.56;4447704;32;34089;-79
2022/04/24 09:40:19;;;;;;;;;;;;;;;21.49;41.95;98729.06;4455474;32;33373;-79
2022/04/24 09:42:54;;;;;;;;;;;;;;;21.36;42.61;98721.19;4437154;32;33760;-78
2022/04/24 09:45:25;;;;;;;;;;;;;;;21.37;41.38;98735.56;4458666;32;36281;-78
2022/04/24 09:48:19;;;;;;;;;;;;;;;21.13;41.62;98748.28;4442593;32;34309;-78
2022/04/24 09:50:50;;;;;;;;;;;;;;;21.17;39.72;98725.09;4439066;32;33153;-79
2022/04/24 09:53:19;;;;;;;;;;;;;;;20.97;39.69;98727.38;4456686;32;35281;-79
2022/04/24 09:55:49;;;;;;;;;;;;;;;20.85;39.29;98737.38;4434059;32;34834;-82
2022/04/24 09:58:17;;;;;;;;;;;;;;;20.68;40.12;98732.88;4438811;32;36090;-79
2022/04/24 10:00:45;;;;;;;;;;;;;;;20.50;39.96;98751.03;4445177;32;31113;-80
2022/04/24 10:03:14;;;;;;;;;;;;;;;20.31;40.57;98752.19;4462223;32;33674;-80
2022/04/24 10:05:43;;;;;;;;;;;;;;;20.64;39.79;98735.22;4447741;32;35290;-81
2022/04/24 10:08:10;;;;;;;;;;;;;;;20.75;40.25;98747.06;4449609;32;34162;-80
2022/04/24 10:10:38;;;;;;;;;;;;;;;20.44;39.95;98758.19;4444877;32;33393;-79
2022/04/24 10:13:06;;;;;;;;;;;;;;;20.35;39.81;98762.28;4434682;32;34060;-80
2022/04/24 10:15:33;;;;;;;;;;;;;;;20.36;40.42;98757.72;4424926;32;35199;-80
2022/04/24 10:18:20;;;;;;;;;;;;;;;20.09;41.18;98762.66;4456687;32;34601;-80
2022/04/24 10:20:50;;;;;;;;;;;;;;;20.09;41.53;98780.75;4457791;32;33558;-79
2022/04/24 10:23:47;;;;;;;;;;;;;;;20.30;41.23;98777.53;4454722;32;34373;-80
2022/04/24 10:26:16;;;;;;;;;;;;;;;19.97;41.82;98764.47;4427052;32;35307;-80
2022/04/24 10:28:46;;;;;;;;;;;;;;;20.30;41.99;98774.84;4461451;32;35262;-79
2022/04/24 10:31:15;;;;;;;;;;;;;;;20.24;42.13;98773.06;4450467;32;33379;-80
2022/04/24 10:33:54;;;;;;;;;;;;;;;19.74;42.52;98775.16;4447065;32;33959;-79
2022/04/24 10:36:23;;;;;;;;;;;;;;;19.36;43.91;98781.84;4434297;32;34297;-79
2022/04/24 10:38:51;;;;;;;;;;;;;;;19.39;44.15;98773.31;4433118;32;34639;-77
2022/04/24 10:41:39;;;;;;;;;;;;;;;19.65;44.11;98767.59;4431257;32;33654;-80
2022/04/24 10:44:08;;;;;;;;;;;;;;;19.52;43.84;98770.47;4440182;32;33887;-79
2022/04/24 10:46:39;;;;;;;;;;;;;;;19.09;44.23;98769.66;4425422;32;36597;-78
2022/04/24 10:49:08;;;;;;;;;;;;;;;19.40;44.16;98753.38;4440298;32;34838;-78
2022/04/24 10:51:37;;;;;;;;;;;;;;;19.27;44.76;98753.53;4447260;32;33510;-80
2022/04/24 10:54:07;;;;;;;;;;;;;;;19.46;44.02;98756.00;4457586;32;34196;-78
2022/04/24 10:56:36;;;;;;;;;;;;;;;19.14;44.15;98756.31;4443629;32;35364;-79
2022/04/24 10:59:15;;;;;;;;;;;;;;;19.41;44.08;98749.63;4459570;32;35116;-79
2022/04/24 11:01:50;;;;;;;;;;;;;;;19.27;44.54;98748.16;4445191;32;33661;-79
2022/04/24 11:04:18;;;;;;;;;;;;;;;19.55;44.44;98754.62;4447153;32;33931;-80
2022/04/24 11:06:55;;;;;;;;;;;;;;;19.56;44.45;98752.78;4455904;32;35242;-83
2022/04/24 11:09:23;;;;;;;;;;;;;;;19.44;44.94;98773.47;4433515;32;34072;-79
2022/04/24 11:38:30;;;;;;;;;;;;;;;19.63;45.27;98764.31;4467460;27;36174;-82
2022/04/24 11:41:01;;;;;;;;;;;;;;;19.81;44.98;98762.41;4459775;32;34600;-80
2022/04/24 11:43:29;;;;;;;;;;;;;;;19.99;44.84;98773.16;4445070;32;33028;-80
2022/04/24 11:51:32;;;;;;;;;;;;;;;19.57;46.53;98766.06;4458474;32;34635;-81
2022/04/24 11:54:11;;;;;;;;;;;;;;;19.23;46.93;98753.16;4433433;32;31662;-80
2022/04/24 11:56:38;;;;;;;;;;;;;;;20.09;45.11;98740.25;4432823;32;33522;-80
2022/04/24 11:59:10;;;;;;;;;;;;;;;20.23;45.49;98739.00;4433300;32;34636;-83
2022/04/24 12:01:38;;;;;;;;;;;;;;;20.91;44.68;98749.13;4432860;32;33316;-81
2022/04/24 12:04:06;;;;;;;;;;;;;;;20.62;44.26;98747.31;4445723;32;33483;-80
2022/04/24 12:06:34;;;;;;;;;;;;;;;20.98;43.72;98749.84;4433387;32;34128;-81
2022/04/24 12:09:05;;;;;;;;;;;;;;;20.83;43.89;98741.31;4445953;32;35032;-81
2022/04/24 12:11:35;;;;;;;;;;;;;;;20.45;44.41;98732.03;4445943;32;35340;-81
2022/04/24 12:14:15;;;;;;;;;;;;;;;21.03;43.81;98726.44;4445980;32;34138;-80
2022/04/24 12:16:48;;;;;;;;;;;;;;;20.91;44.15;98714.81;4446276;32;33022;-81
2022/04/24 12:19:19;;;;;;;;;;;;;;;21.01;44.53;98716.91;4445743;32;35367;-81
2022/04/24 12:21:49;;;;;;;;;;;;;;;21.60;43.19;98709.25;4445662;32;34463;-82
2022/04/24 12:24:17;;;;;;;;;;;;;;;22.17;43.57;98708.22;4459674;32;32674;-82
2022/04/24 12:26:45;;;;;;;;;;;;;;;22.81;41.68;98721.25;4444636;32;33369;-82
2022/04/24 12:29:15;;;;;;;;;;;;;;;23.33;40.63;98719.87;4445502;32;35299;-83
2022/04/24 12:31:44;;;;;;;;;;;;;;;23.31;38.82;98716.56;4462544;32;34137;-82
2022/04/24 12:34:12;;;;;;;;;;;;;;;23.00;39.40;98727.19;4432654;32;33095;-81
2022/04/24 12:36:47;;;;;;;;;;;;;;;22.42;40.05;98711.41;4432316;32;33593;-81
2022/04/24 12:39:15;;;;;;;;;;;;;;;21.93;41.25;98709.41;4445284;32;34791;-82
2022/04/24 12:41:44;;;;;;;;;;;;;;;21.54;42.74;98712.91;4445703;32;33991;-81
2022/04/24 16:28:30;;;;;;;;;;;;;;;25.26;30.50;98575.06;4474160;26;35222;-78
2022/04/24 16:30:59;;;;;;;;;;;;;;;24.73;31.02;98560.94;4429846;32;34310;-79
2022/04/24 16:33:27;;;;;;;;;;;;;;;25.22;30.16;98565.78;4432970;32;32427;-79
2022/04/24 16:35:56;;;;;;;;;;;;;;;25.39;30.44;98565.56;4432779;32;32663;-79
2022/04/24 16:38:24;;;;;;;;;;;;;;;24.86;30.59;98574.88;4420661;32;34287;-79
2022/04/24 16:40:52;;;;;;;;;;;;;;;24.15;31.80;98569.19;4460567;32;35460;-78
2022/04/24 16:43:19;;;;;;;;;;;;;;;24.23;31.68;98571.44;4420596;32;31878;-78
2022/04/24 16:45:47;;;;;;;;;;;;;;;24.25;31.96;98580.12;4436923;32;32047;-78
2022/04/24 16:48:14;;;;;;;;;;;;;;;23.89;32.17;98579.03;4432783;32;34929;-78
2022/04/24 16:59:01;;;;;;;;;;;;;;;23.34;33.60;98576.81;4459124;32;36659;-78
2022/04/24 17:01:29;;;;;;;;;;;;;;;23.61;33.58;98578.47;4459460;32;34419;-79
2022/04/24 17:03:57;;;;;;;;;;;;;;;23.46;34.04;98580.19;4426312;32;33943;-82
2022/04/24 17:06:26;;;;;;;;;;;;;;;23.15;35.18;98573.63;4459390;32;35353;-81
2022/04/24 17:08:57;;;;;;;;;;;;;;;22.89;34.95;98568.94;4458845;32;35670;-81
2022/04/24 17:11:26;;;;;;;;;;;;;;;22.76;35.20;98577.44;4458602;32;34387;-81
2022/04/24 17:13:57;;;;;;;;;;;;;;;22.82;35.19;98576.44;4457523;32;34136;-81
2022/04/24 17:16:26;;;;;;;;;;;;;;;22.63;35.88;98572.38;4431553;32;34812;-82
2022/04/24 17:18:55;;;;;;;;;;;;;;;22.05;36.83;98573.91;4458923;32;35175;-82
2022/04/24 17:21:24;;;;;;;;;;;;;;;22.18;36.80;98579.81;4460873;32;33687;-82